Time;durP1;ratioP1;P1;durP2;ratioP2;P2;SDS_P1;SDS_P2;PMS_P1;PMS_P2;Temp;Humidity;BMP_temperature;BMP_pressure;BME280_temperature;BME280_humidity;BME280_pressure;Samples;Min_cycle;Max_cycle;Signal;HPM_P1;HPM_P2
2024/01/30 00:00:17;;;;;;;21.37;15.70;;;;;;;;;;5057048;28;20216;-80
2024/01/30 00:02:46;;;;;;;22.47;15.37;;;;;;;;;;5053163;28;20200;-78
2024/01/30 00:05:19;;;;;;;21.17;15.30;;;;;;;;;;5034401;28;20194;-78
2024/01/30 00:07:50;;;;;;;19.13;16.07;;;;;;;;;;5053313;28;20197;-77
2024/01/30 00:10:19;;;;;;;21.80;16.97;;;;;;;;;;5036104;28;20194;-77
2024/01/30 00:12:47;;;;;;;22.40;17.27;;;;;;;;;;5053396;28;20294;-77
2024/01/30 00:15:22;;;;;;;24.87;17.17;;;;;;;;;;5052709;28;20235;-78
2024/01/30 00:17:52;;;;;;;22.53;17.10;;;;;;;;;;5053514;28;20673;-78
2024/01/30 00:20:20;;;;;;;25.77;18.23;;;;;;;;;;5052773;28;20205;-79
2024/01/30 00:22:49;;;;;;;23.47;17.40;;;;;;;;;;5035263;28;20205;-79
2024/01/30 00:25:22;;;;;;;23.27;17.70;;;;;;;;;;5053188;28;20197;-79
2024/01/30 00:27:51;;;;;;;25.73;17.40;;;;;;;;;;5053039;28;20284;-81
2024/01/30 00:30:20;;;;;;;25.07;17.63;;;;;;;;;;5052936;28;20193;-78
2024/01/30 00:32:51;;;;;;;26.07;18.07;;;;;;;;;;5053099;28;20209;-79
2024/01/30 00:35:18;;;;;;;25.50;17.93;;;;;;;;;;5052554;28;20202;-78
2024/01/30 00:37:49;;;;;;;26.13;18.30;;;;;;;;;;5038325;28;20225;-79
2024/01/30 00:40:17;;;;;;;26.63;18.90;;;;;;;;;;5052994;28;20201;-81
2024/01/30 00:42:49;;;;;;;27.87;18.67;;;;;;;;;;5051182;28;20200;-79
2024/01/30 00:45:21;;;;;;;25.10;18.03;;;;;;;;;;5049754;28;20259;-79
2024/01/30 00:47:49;;;;;;;26.80;18.73;;;;;;;;;;5047748;28;20251;-78
2024/01/30 00:50:16;;;;;;;26.97;19.23;;;;;;;;;;5052716;28;20201;-79
2024/01/30 00:52:45;;;;;;;50.63;27.73;;;;;;;;;;5051570;28;20314;-79
2024/01/30 00:55:12;;;;;;;46.93;25.87;;;;;;;;;;5029417;28;20249;-79
2024/01/30 00:57:43;;;;;;;33.60;22.07;;;;;;;;;;5052626;28;20198;-79
2024/01/30 01:00:16;;;;;;;30.80;21.37;;;;;;;;;;5052121;28;20199;-79
2024/01/30 01:02:50;;;;;;;29.67;20.10;;;;;;;;;;5051096;28;20196;-79
2024/01/30 01:05:17;;;;;;;42.13;24.57;;;;;;;;;;5052293;28;20226;-78
2024/01/30 01:07:45;;;;;;;49.53;27.27;;;;;;;;;;5034529;28;20545;-82
2024/01/30 01:10:15;;;;;;;43.93;25.67;;;;;;;;;;5039099;28;20220;-80
2024/01/30 01:12:45;;;;;;;53.50;29.07;;;;;;;;;;5051913;28;20263;-80
2024/01/30 01:15:12;;;;;;;36.40;23.57;;;;;;;;;;5052487;28;20273;-79
2024/01/30 01:17:42;;;;;;;25.00;20.20;;;;;;;;;;5052510;28;20208;-83
2024/01/30 01:20:15;;;;;;;28.33;20.70;;;;;;;;;;5049989;28;20194;-80
2024/01/30 01:22:45;;;;;;;27.07;20.33;;;;;;;;;;5045362;28;20193;-81
2024/01/30 01:25:12;;;;;;;34.03;22.70;;;;;;;;;;5046201;28;20193;-79
2024/01/30 01:27:42;;;;;;;42.53;24.70;;;;;;;;;;5052063;28;20271;-78
2024/01/30 01:30:10;;;;;;;48.17;28.20;;;;;;;;;;5047505;28;20268;-86
2024/01/30 01:32:38;;;;;;;55.77;29.67;;;;;;;;;;5051933;28;20194;-79
2024/01/30 01:35:07;;;;;;;36.40;23.47;;;;;;;;;;5058785;28;20265;-79
2024/01/30 01:37:38;;;;;;;28.57;20.07;;;;;;;;;;5035557;28;20186;-80
2024/01/30 01:40:08;;;;;;;30.60;21.53;;;;;;;;;;5051648;28;20248;-79
2024/01/30 01:42:35;;;;;;;34.87;22.70;;;;;;;;;;5048367;28;20194;-79
2024/01/30 01:45:02;;;;;;;86.17;35.23;;;;;;;;;;5051533;28;20225;-77
2024/01/30 01:47:29;;;;;;;128.10;46.73;;;;;;;;;;5051366;28;20260;-81
2024/01/30 01:49:56;;;;;;;93.87;38.50;;;;;;;;;;5051140;28;20224;-79
2024/01/30 01:52:24;;;;;;;71.43;33.87;;;;;;;;;;5048558;28;20267;-81
2024/01/30 01:54:50;;;;;;;41.57;25.10;;;;;;;;;;5034909;28;20966;-79
2024/01/30 01:57:17;;;;;;;35.10;23.10;;;;;;;;;;5051027;28;20190;-78
2024/01/30 01:59:45;;;;;;;32.77;21.63;;;;;;;;;;5050858;28;20271;-81
2024/01/30 02:02:15;;;;;;;35.40;21.93;;;;;;;;;;5031785;28;20208;-79
2024/01/30 02:04:46;;;;;;;27.10;20.10;;;;;;;;;;5052468;28;20276;-80
2024/01/30 02:07:15;;;;;;;27.57;20.23;;;;;;;;;;5052200;28;20673;-79
2024/01/30 02:09:42;;;;;;;30.47;21.07;;;;;;;;;;5050954;28;20240;-80
2024/01/30 02:12:11;;;;;;;26.53;19.10;;;;;;;;;;5033641;28;20193;-80
2024/01/30 02:14:48;;;;;;;29.40;19.70;;;;;;;;;;5050888;28;20197;-79
2024/01/30 02:17:15;;;;;;;26.93;20.00;;;;;;;;;;5050898;28;20190;-79
2024/01/30 02:19:43;;;;;;;32.47;20.07;;;;;;;;;;5049236;28;20197;-80
2024/01/30 02:22:13;;;;;;;26.83;19.63;;;;;;;;;;5047150;28;20276;-79
2024/01/30 02:24:39;;;;;;;32.43;20.17;;;;;;;;;;5046079;28;20197;-79
2024/01/30 02:27:08;;;;;;;27.77;18.97;;;;;;;;;;5048363;28;20193;-78
2024/01/30 02:29:37;;;;;;;25.53;18.00;;;;;;;;;;5050877;28;20697;-83
2024/01/30 02:32:04;;;;;;;26.53;18.70;;;;;;;;;;5050724;28;20190;-79
2024/01/30 02:34:31;;;;;;;27.00;18.80;;;;;;;;;;5046714;28;20256;-79
2024/01/30 02:36:58;;;;;;;27.27;19.17;;;;;;;;;;5039417;28;20661;-79
2024/01/30 02:39:25;;;;;;;27.10;19.33;;;;;;;;;;5051826;28;20197;-78
2024/01/30 02:41:57;;;;;;;30.53;19.53;;;;;;;;;;5035461;28;20213;-78
2024/01/30 02:44:31;;;;;;;27.07;18.73;;;;;;;;;;5049914;28;20194;-77
2024/01/30 02:47:00;;;;;;;23.47;18.37;;;;;;;;;;5051805;28;20197;-79
2024/01/30 02:49:27;;;;;;;26.03;19.10;;;;;;;;;;5050634;28;20277;-79
2024/01/30 02:51:56;;;;;;;27.27;18.90;;;;;;;;;;5051789;28;20293;-78
2024/01/30 02:54:23;;;;;;;27.03;18.53;;;;;;;;;;5051443;28;20288;-79
2024/01/30 02:56:54;;;;;;;26.17;19.03;;;;;;;;;;5045257;28;20190;-79
2024/01/30 02:59:20;;;;;;;25.23;17.73;;;;;;;;;;5034098;28;20201;-80
2024/01/30 03:01:47;;;;;;;25.10;18.20;;;;;;;;;;5050985;28;20284;-80
2024/01/30 03:04:19;;;;;;;24.70;18.50;;;;;;;;;;5044597;28;20194;-78
2024/01/30 03:06:51;;;;;;;29.93;19.07;;;;;;;;;;5050295;28;20221;-78
2024/01/30 03:09:20;;;;;;;25.33;18.20;;;;;;;;;;5032652;28;20301;-79
2024/01/30 03:11:51;;;;;;;25.80;18.43;;;;;;;;;;5050220;28;20193;-79
2024/01/30 03:14:22;;;;;;;24.77;18.17;;;;;;;;;;5056064;28;20681;-79
2024/01/30 03:16:48;;;;;;;25.87;19.37;;;;;;;;;;5049975;28;20194;-79
2024/01/30 03:19:15;;;;;;;24.03;18.67;;;;;;;;;;5038936;28;20201;-78
2024/01/30 03:21:42;;;;;;;26.23;18.43;;;;;;;;;;5049648;28;20201;-79
2024/01/30 03:24:09;;;;;;;24.40;17.93;;;;;;;;;;5050322;28;20205;-79
2024/01/30 03:26:38;;;;;;;28.60;19.17;;;;;;;;;;5032467;28;20344;-78
2024/01/30 03:29:04;;;;;;;23.90;18.07;;;;;;;;;;5050082;28;20201;-80
2024/01/30 03:31:33;;;;;;;25.17;17.67;;;;;;;;;;5031228;28;20254;-79
2024/01/30 03:34:03;;;;;;;24.93;17.93;;;;;;;;;;5049996;28;20197;-83
2024/01/30 03:36:32;;;;;;;22.77;17.90;;;;;;;;;;5049468;28;20223;-80
2024/01/30 03:38:59;;;;;;;24.50;18.53;;;;;;;;;;5057175;28;20243;-79
2024/01/30 03:41:28;;;;;;;24.60;18.17;;;;;;;;;;5049797;28;20208;-80
2024/01/30 03:43:55;;;;;;;25.03;18.60;;;;;;;;;;5026283;28;20738;-78
2024/01/30 03:46:24;;;;;;;26.00;17.53;;;;;;;;;;5048181;28;20232;-79
2024/01/30 03:48:51;;;;;;;23.57;17.57;;;;;;;;;;5048143;28;20243;-82
2024/01/30 03:51:18;;;;;;;28.80;18.33;;;;;;;;;;5026200;28;20205;-79
2024/01/30 03:53:48;;;;;;;27.77;18.80;;;;;;;;;;5049758;28;20237;-79
2024/01/30 03:56:14;;;;;;;22.23;18.23;;;;;;;;;;5046967;28;20263;-81
2024/01/30 03:58:41;;;;;;;23.07;17.67;;;;;;;;;;5050017;28;20197;-80
2024/01/30 04:01:22;;;;;;;30.53;20.10;;;;;;;;;;5047806;28;20193;-81
2024/01/30 04:03:50;;;;;;;24.97;18.60;;;;;;;;;;5047136;28;20231;-78
2024/01/30 04:06:26;;;;;;;27.40;18.63;;;;;;;;;;5045266;28;20197;-80
2024/01/30 04:08:53;;;;;;;21.90;16.77;;;;;;;;;;5049764;28;20194;-80
2024/01/30 04:11:23;;;;;;;22.97;17.30;;;;;;;;;;5049673;28;20203;-81
2024/01/30 04:13:50;;;;;;;24.67;17.40;;;;;;;;;;5049820;28;20204;-78
2024/01/30 04:16:22;;;;;;;23.80;17.67;;;;;;;;;;5049377;28;20627;-79
2024/01/30 04:18:50;;;;;;;25.70;18.00;;;;;;;;;;5049496;28;20205;-79
2024/01/30 04:21:22;;;;;;;24.90;18.37;;;;;;;;;;5049177;28;20216;-79
2024/01/30 04:23:51;;;;;;;24.70;18.20;;;;;;;;;;5050836;28;20201;-79
2024/01/30 04:26:18;;;;;;;23.87;17.77;;;;;;;;;;5049083;28;20277;-79
2024/01/30 04:28:45;;;;;;;24.20;17.87;;;;;;;;;;5049360;28;20200;-80
2024/01/30 04:31:17;;;;;;;24.33;19.10;;;;;;;;;;5049073;28;20205;-79
2024/01/30 04:33:46;;;;;;;27.83;18.60;;;;;;;;;;5049357;28;20196;-81
2024/01/30 04:36:15;;;;;;;25.13;17.97;;;;;;;;;;5048743;28;20197;-79
2024/01/30 04:38:42;;;;;;;24.10;17.10;;;;;;;;;;5055599;28;20192;-79
2024/01/30 04:41:08;;;;;;;26.17;18.80;;;;;;;;;;5052544;28;20269;-79
2024/01/30 04:43:35;;;;;;;26.13;17.97;;;;;;;;;;5052877;28;20193;-78
2024/01/30 04:46:02;;;;;;;27.73;17.97;;;;;;;;;;5049479;28;20193;-79
2024/01/30 04:48:31;;;;;;;25.27;17.33;;;;;;;;;;5052602;28;20225;-81
2024/01/30 04:51:02;;;;;;;25.90;18.00;;;;;;;;;;5052471;28;20298;-79
2024/01/30 04:53:31;;;;;;;25.57;18.43;;;;;;;;;;5048541;28;20239;-79
2024/01/30 04:55:59;;;;;;;25.77;18.33;;;;;;;;;;5035465;28;20217;-79
2024/01/30 04:58:29;;;;;;;25.00;17.87;;;;;;;;;;5034163;28;20277;-80
2024/01/30 05:00:57;;;;;;;22.47;17.87;;;;;;;;;;5052893;28;20670;-80
2024/01/30 05:03:26;;;;;;;24.90;17.33;;;;;;;;;;5023355;28;20206;-80
2024/01/30 05:05:56;;;;;;;27.93;19.20;;;;;;;;;;5039958;28;20252;-79
2024/01/30 05:08:23;;;;;;;26.20;18.83;;;;;;;;;;5046959;28;20199;-82
2024/01/30 05:10:49;;;;;;;28.47;19.43;;;;;;;;;;5032611;28;20214;-82
2024/01/30 05:13:16;;;;;;;24.80;18.53;;;;;;;;;;5032618;28;20190;-80
2024/01/30 05:15:44;;;;;;;25.40;17.83;;;;;;;;;;5031441;28;20195;-80
2024/01/30 05:18:11;;;;;;;24.60;16.73;;;;;;;;;;5032591;28;20195;-80
2024/01/30 05:20:38;;;;;;;26.20;18.07;;;;;;;;;;5035276;28;20241;-79
2024/01/30 05:23:07;;;;;;;25.33;17.13;;;;;;;;;;5016948;28;20194;-79
2024/01/30 05:25:39;;;;;;;26.30;18.67;;;;;;;;;;5029709;28;20197;-80
2024/01/30 05:28:07;;;;;;;31.13;18.87;;;;;;;;;;5043407;28;20189;-80
2024/01/30 05:30:39;;;;;;;24.67;18.03;;;;;;;;;;5037831;28;20253;-80
2024/01/30 05:33:07;;;;;;;25.33;16.97;;;;;;;;;;5031416;28;20249;-79
2024/01/30 05:35:36;;;;;;;25.30;17.80;;;;;;;;;;5037889;28;20191;-79
2024/01/30 05:38:08;;;;;;;27.03;17.53;;;;;;;;;;5043737;28;20198;-77
2024/01/30 05:40:34;;;;;;;25.43;17.10;;;;;;;;;;5021866;28;20230;-79
2024/01/30 05:43:04;;;;;;;25.07;17.17;;;;;;;;;;5034689;28;20256;-80
2024/01/30 05:45:34;;;;;;;23.40;16.77;;;;;;;;;;5045610;28;20197;-80
2024/01/30 05:48:10;;;;;;;23.33;16.63;;;;;;;;;;5032654;28;20206;-81
2024/01/30 05:50:36;;;;;;;24.97;16.63;;;;;;;;;;5037987;28;20210;-81
2024/01/30 05:53:04;;;;;;;22.97;15.93;;;;;;;;;;5044702;28;20233;-81
2024/01/30 05:55:31;;;;;;;24.57;17.57;;;;;;;;;;5050439;28;20205;-81
2024/01/30 05:58:00;;;;;;;24.10;16.60;;;;;;;;;;5037841;28;20197;-81
2024/01/30 06:00:26;;;;;;;21.83;16.07;;;;;;;;;;5037214;28;20200;-81
2024/01/30 06:02:54;;;;;;;24.07;16.37;;;;;;;;;;5036085;28;20193;-82
2024/01/30 06:05:21;;;;;;;23.43;16.87;;;;;;;;;;5036092;28;20264;-79
2024/01/30 06:07:51;;;;;;;25.30;16.43;;;;;;;;;;5042483;28;20196;-81
2024/01/30 06:10:19;;;;;;;24.13;16.03;;;;;;;;;;5035067;28;20356;-81
2024/01/30 06:12:46;;;;;;;24.27;17.80;;;;;;;;;;5042846;28;20198;-81
2024/01/30 06:15:15;;;;;;;24.57;16.70;;;;;;;;;;5033101;28;20204;-80
2024/01/30 06:17:45;;;;;;;25.40;17.47;;;;;;;;;;5036888;28;20239;-79
2024/01/30 06:20:11;;;;;;;24.23;17.23;;;;;;;;;;5039912;28;20224;-80
2024/01/30 06:22:41;;;;;;;27.20;17.47;;;;;;;;;;5029684;28;20257;-83
2024/01/30 06:25:12;;;;;;;28.57;18.33;;;;;;;;;;5033508;28;20231;-82
2024/01/30 06:27:40;;;;;;;23.83;17.87;;;;;;;;;;5038131;28;20193;-82
2024/01/30 06:30:09;;;;;;;23.63;18.33;;;;;;;;;;5034837;28;20206;-80
2024/01/30 06:32:40;;;;;;;65.77;39.63;;;;;;;;;;5034469;28;20285;-81
2024/01/30 06:35:07;;;;;;;29.47;20.90;;;;;;;;;;5036545;28;20230;-81
2024/01/30 06:37:40;;;;;;;29.63;19.27;;;;;;;;;;5039239;28;20213;-81
2024/01/30 06:40:07;;;;;;;26.93;18.37;;;;;;;;;;5032147;28;20199;-80
2024/01/30 06:42:37;;;;;;;25.33;17.40;;;;;;;;;;5040830;28;20194;-80
2024/01/30 06:45:07;;;;;;;24.87;17.60;;;;;;;;;;5041979;28;20239;-81
2024/01/30 06:47:36;;;;;;;25.67;17.77;;;;;;;;;;5031726;28;20190;-81
2024/01/30 06:50:03;;;;;;;23.63;18.23;;;;;;;;;;5043542;28;20216;-81
2024/01/30 06:52:32;;;;;;;23.90;17.07;;;;;;;;;;5029219;28;20231;-83
2024/01/30 06:54:58;;;;;;;29.57;18.10;;;;;;;;;;5033783;28;20220;-84
2024/01/30 06:57:30;;;;;;;26.07;17.43;;;;;;;;;;5012823;28;20205;-82
2024/01/30 06:59:57;;;;;;;28.20;17.87;;;;;;;;;;5030541;28;20277;-80
2024/01/30 07:02:26;;;;;;;24.57;17.53;;;;;;;;;;5029834;28;20202;-80
2024/01/30 07:05:04;;;;;;;;;;;;;;;;;;;;;
2024/01/30 07:07:31;;;;;;;25.40;18.47;;;;;;;;;;5041697;28;20205;-79
2024/01/30 07:09:59;;;;;;;24.77;18.87;;;;;;;;;;5044515;28;20261;-82
2024/01/30 07:12:26;;;;;;;27.27;19.23;;;;;;;;;;5045044;28;20217;-79
2024/01/30 07:14:56;;;;;;;26.03;19.57;;;;;;;;;;5033754;28;20194;-78
2024/01/30 07:17:25;;;;;;;26.07;18.83;;;;;;;;;;5025561;28;20197;-79
2024/01/30 07:19:55;;;;;;;24.70;18.07;;;;;;;;;;5034834;28;20200;-80
2024/01/30 07:22:22;;;;;;;23.77;18.17;;;;;;;;;;5014252;28;20199;-81
2024/01/30 07:24:49;;;;;;;23.07;18.50;;;;;;;;;;5030197;28;20224;-80
2024/01/30 07:27:17;;;;;;;25.20;17.20;;;;;;;;;;5028155;28;20662;-80
2024/01/30 07:29:47;;;;;;;23.53;18.47;;;;;;;;;;5029968;28;20194;-77
2024/01/30 07:32:29;;;;;;;24.17;16.97;;;;;;;;;;5006367;28;20194;-79
2024/01/30 07:34:57;;;;;;;27.40;18.07;;;;;;;;;;5032452;28;20194;-78
2024/01/30 07:37:40;;;;;;;26.30;18.10;;;;;;;;;;5028895;28;20224;-80
2024/01/30 07:40:08;;;;;;;21.97;17.87;;;;;;;;;;5031604;28;20429;-81
2024/01/30 07:42:35;;;;;;;27.43;17.43;;;;;;;;;;5035849;28;20225;-81
2024/01/30 07:45:02;;;;;;;27.37;18.20;;;;;;;;;;5000945;28;20231;-80
2024/01/30 07:47:33;;;;;;;24.70;17.93;;;;;;;;;;5043080;28;20245;-79
2024/01/30 07:50:00;;;;;;;26.30;18.93;;;;;;;;;;5047340;28;20288;-82
2024/01/30 07:52:27;;;;;;;25.70;18.90;;;;;;;;;;5049764;28;20225;-82
2024/01/30 07:54:58;;;;;;;26.70;19.10;;;;;;;;;;5018960;28;20751;-83
2024/01/30 07:57:24;;;;;;;26.93;19.27;;;;;;;;;;5031969;28;20224;-80
2024/01/30 07:59:53;;;;;;;25.03;18.67;;;;;;;;;;5046453;28;20201;-80
2024/01/30 08:02:32;;;;;;;26.50;19.37;;;;;;;;;;5037194;28;20736;-83
2024/01/30 08:05:00;;;;;;;29.80;19.60;;;;;;;;;;5019797;28;20237;-81
2024/01/30 08:07:30;;;;;;;27.17;19.33;;;;;;;;;;5007661;28;20229;-81
2024/01/30 08:10:21;;;;;;;25.40;18.77;;;;;;;;;;5029381;28;20225;-81
2024/01/30 08:12:50;;;;;;;26.47;18.53;;;;;;;;;;5034594;28;20194;-79
2024/01/30 08:15:17;;;;;;;26.23;19.13;;;;;;;;;;5033657;28;20201;-83
2024/01/30 08:17:44;;;;;;;25.27;18.23;;;;;;;;;;5014809;28;20206;-83
2024/01/30 08:20:11;;;;;;;22.97;18.53;;;;;;;;;;5036043;28;20199;-82
2024/01/30 08:22:41;;;;;;;26.10;19.13;;;;;;;;;;5036609;28;20280;-82
2024/01/30 08:25:10;;;;;;;23.77;19.20;;;;;;;;;;5036486;28;20198;-80
2024/01/30 08:27:38;;;;;;;29.43;19.83;;;;;;;;;;5018517;28;20206;-80
2024/01/30 08:30:15;;;;;;;27.80;19.47;;;;;;;;;;5027245;28;20229;-83
2024/01/30 08:32:44;;;;;;;25.40;19.37;;;;;;;;;;5014425;28;20202;-83
2024/01/30 08:35:16;;;;;;;26.90;19.80;;;;;;;;;;5048584;28;20204;-81
2024/01/30 08:37:49;;;;;;;26.40;20.17;;;;;;;;;;5033330;28;20244;-83
2024/01/30 08:40:17;;;;;;;27.27;19.47;;;;;;;;;;5026295;28;20203;-80
2024/01/30 08:42:44;;;;;;;26.93;19.83;;;;;;;;;;5045302;28;20221;-80
2024/01/30 08:45:17;;;;;;;25.30;18.87;;;;;;;;;;5040143;28;20205;-81
2024/01/30 08:47:43;;;;;;;26.63;18.60;;;;;;;;;;5025064;28;20206;-82
2024/01/30 08:50:10;;;;;;;26.70;19.23;;;;;;;;;;5049686;28;20200;-81
2024/01/30 08:52:37;;;;;;;27.37;19.73;;;;;;;;;;5047582;28;20271;-80
2024/01/30 08:55:08;;;;;;;24.83;19.43;;;;;;;;;;5020962;28;20226;-80
2024/01/30 08:57:36;;;;;;;24.93;18.93;;;;;;;;;;5032714;28;20230;-83
2024/01/30 09:00:10;;;;;;;27.90;19.40;;;;;;;;;;5026818;28;20190;-83
2024/01/30 09:02:37;;;;;;;24.47;17.83;;;;;;;;;;5047593;28;20214;-81
2024/01/30 09:05:07;;;;;;;25.07;18.57;;;;;;;;;;5036777;28;20222;-80
2024/01/30 09:07:45;;;;;;;21.67;17.37;;;;;;;;;;5034155;28;20186;-81
2024/01/30 09:10:17;;;;;;;23.30;18.00;;;;;;;;;;5026808;28;20205;-82
2024/01/30 09:12:51;;;;;;;21.07;17.70;;;;;;;;;;5029762;28;20200;-83
2024/01/30 09:15:21;;;;;;;24.23;17.47;;;;;;;;;;5052553;28;20208;-80
2024/01/30 09:17:50;;;;;;;23.27;18.60;;;;;;;;;;5046789;28;20190;-81
2024/01/30 09:20:22;;;;;;;22.67;18.20;;;;;;;;;;5042063;28;20219;-83
2024/01/30 09:22:49;;;;;;;22.50;17.67;;;;;;;;;;5019974;28;20202;-81
2024/01/30 09:25:15;;;;;;;21.93;17.47;;;;;;;;;;5032036;28;20204;-81
2024/01/30 09:28:08;;;;;;;22.63;16.87;;;;;;;;;;5014068;28;20181;-81
2024/01/30 09:30:35;;;;;;;24.77;17.17;;;;;;;;;;5038700;28;20221;-83
2024/01/30 09:33:07;;;;;;;20.10;16.40;;;;;;;;;;5037575;28;20216;-81
2024/01/30 09:35:33;;;;;;;22.50;16.97;;;;;;;;;;5039655;28;20190;-80
2024/01/30 09:38:03;;;;;;;19.67;15.67;;;;;;;;;;5023863;28;20254;-82
2024/01/30 09:40:30;;;;;;;18.87;15.57;;;;;;;;;;5031382;28;20673;-80
2024/01/30 09:42:58;;;;;;;19.90;15.80;;;;;;;;;;5035685;28;20194;-83
2024/01/30 09:45:25;;;;;;;18.23;15.60;;;;;;;;;;5039762;28;20190;-81
2024/01/30 09:48:01;;;;;;;17.40;14.50;;;;;;;;;;5032360;28;20197;-79
2024/01/30 09:50:31;;;;;;;20.13;15.37;;;;;;;;;;5023079;28;20233;-82
2024/01/30 09:52:58;;;;;;;18.03;14.17;;;;;;;;;;5043412;28;20236;-81
2024/01/30 09:55:28;;;;;;;19.70;14.17;;;;;;;;;;5053500;28;20213;-80
2024/01/30 09:57:54;;;;;;;19.43;15.00;;;;;;;;;;5049385;28;20197;-82
2024/01/30 10:00:26;;;;;;;18.77;14.80;;;;;;;;;;5056987;28;20282;-83
2024/01/30 10:02:53;;;;;;;18.03;14.47;;;;;;;;;;5053609;28;20284;-82
2024/01/30 10:05:22;;;;;;;15.83;13.70;;;;;;;;;;5050713;28;20209;-80
2024/01/30 10:07:56;;;;;;;17.47;13.50;;;;;;;;;;5039787;28;20201;-80
2024/01/30 10:10:31;;;;;;;15.80;13.00;;;;;;;;;;5049845;28;20186;-80
2024/01/30 10:12:58;;;;;;;18.37;13.00;;;;;;;;;;5053113;28;20244;-80
2024/01/30 10:15:30;;;;;;;15.53;12.83;;;;;;;;;;5049611;28;20193;-83
2024/01/30 10:17:57;;;;;;;16.73;13.30;;;;;;;;;;5038320;28;20200;-81
2024/01/30 10:20:29;;;;;;;15.43;12.23;;;;;;;;;;5035711;28;20263;-82
2024/01/30 10:22:56;;;;;;;16.37;12.63;;;;;;;;;;5051051;28;20193;-83
2024/01/30 10:25:29;;;;;;;16.33;13.60;;;;;;;;;;5056903;28;20185;-83
2024/01/30 10:27:58;;;;;;;18.97;14.03;;;;;;;;;;5052841;28;20194;-80
2024/01/30 10:30:24;;;;;;;16.87;13.37;;;;;;;;;;5053505;28;20186;-81
2024/01/30 10:32:51;;;;;;;15.90;13.07;;;;;;;;;;5050727;28;20201;-83
2024/01/30 10:35:21;;;;;;;18.07;13.53;;;;;;;;;;5051279;28;20209;-81
2024/01/30 10:37:48;;;;;;;15.60;12.80;;;;;;;;;;5050926;28;20675;-85
2024/01/30 10:40:27;;;;;;;16.30;13.00;;;;;;;;;;5036608;28;20197;-82
2024/01/30 10:43:00;;;;;;;18.10;12.50;;;;;;;;;;5040926;28;20259;-82
2024/01/30 10:45:32;;;;;;;15.10;12.40;;;;;;;;;;5052642;28;20194;-83
2024/01/30 10:47:59;;;;;;;13.90;12.23;;;;;;;;;;5036401;28;20193;-82
2024/01/30 10:50:43;;;;;;;15.73;12.73;;;;;;;;;;5050980;28;20613;-83
2024/01/30 10:53:19;;;;;;;16.57;12.50;;;;;;;;;;5052923;28;20256;-81
2024/01/30 10:55:51;;;;;;;14.73;11.57;;;;;;;;;;5047128;28;20206;-81
2024/01/30 10:58:21;;;;;;;14.43;12.30;;;;;;;;;;5052504;28;20198;-83
2024/01/30 11:01:00;;;;;;;17.60;12.97;;;;;;;;;;5034690;28;20197;-81
2024/01/30 11:03:31;;;;;;;14.23;12.03;;;;;;;;;;5052684;28;20189;-81
2024/01/30 11:06:01;;;;;;;15.93;12.90;;;;;;;;;;5034765;28;20229;-83
2024/01/30 11:08:34;;;;;;;15.60;12.13;;;;;;;;;;5052881;28;20197;-82
2024/01/30 11:11:07;;;;;;;14.93;12.13;;;;;;;;;;5052185;28;20300;-84
2024/01/30 11:13:38;;;;;;;14.63;12.47;;;;;;;;;;5047269;28;20185;-81
2024/01/30 11:16:11;;;;;;;14.63;12.40;;;;;;;;;;5027407;28;20196;-84
2024/01/30 11:18:39;;;;;;;14.93;12.67;;;;;;;;;;5034834;28;20678;-83
2024/01/30 11:21:06;;;;;;;12.93;11.57;;;;;;;;;;5034172;28;20225;-83
2024/01/30 11:23:34;;;;;;;17.67;12.40;;;;;;;;;;5052645;28;20225;-83
2024/01/30 11:26:04;;;;;;;14.33;11.50;;;;;;;;;;5048708;28;20202;-82
2024/01/30 11:28:34;;;;;;;12.90;11.50;;;;;;;;;;5036186;28;20202;-82
2024/01/30 11:31:05;;;;;;;13.53;10.93;;;;;;;;;;5043533;28;20240;-82
2024/01/30 11:33:32;;;;;;;14.50;11.90;;;;;;;;;;5050352;28;20201;-83
2024/01/30 11:36:01;;;;;;;12.17;10.93;;;;;;;;;;5034741;28;20194;-83
2024/01/30 11:38:28;;;;;;;12.60;11.10;;;;;;;;;;5042530;28;20201;-83
2024/01/30 11:40:57;;;;;;;12.83;11.10;;;;;;;;;;5051800;28;20307;-81
2024/01/30 11:43:26;;;;;;;13.47;11.20;;;;;;;;;;5014081;28;20300;-83
2024/01/30 11:45:55;;;;;;;12.83;11.43;;;;;;;;;;5051786;28;20312;-82
2024/01/30 11:48:36;;;;;;;12.63;11.13;;;;;;;;;;5033894;28;20216;-84
2024/01/30 11:51:19;;;;;;;11.97;10.73;;;;;;;;;;5056205;28;20205;-86
2024/01/30 11:53:49;;;;;;;12.13;10.77;;;;;;;;;;5055934;28;20244;-82
2024/01/30 11:56:16;;;;;;;14.50;12.17;;;;;;;;;;5038302;28;20223;-82
2024/01/30 11:58:56;;;;;;;34.77;27.10;;;;;;;;;;5055983;28;20212;-82
2024/01/30 12:01:23;;;;;;;14.63;12.60;;;;;;;;;;5037962;28;20254;-84
2024/01/30 12:03:50;;;;;;;12.33;10.80;;;;;;;;;;5038571;28;20213;-81
2024/01/30 12:06:18;;;;;;;12.67;10.23;;;;;;;;;;5038798;28;20208;-83
2024/01/30 12:09:13;;;;;;;11.63;10.13;;;;;;;;;;5056241;28;20280;-86
2024/01/30 12:11:46;;;;;;;12.50;10.70;;;;;;;;;;5036319;28;20209;-83
2024/01/30 12:14:16;;;;;;;11.30;9.63;;;;;;;;;;5049041;28;20292;-84
2024/01/30 12:16:47;;;;;;;13.07;10.33;;;;;;;;;;5064714;28;20198;-84
2024/01/30 12:19:25;;;;;;;12.63;10.03;;;;;;;;;;5056001;28;20181;-85
2024/01/30 12:21:55;;;;;;;13.13;11.17;;;;;;;;;;5056041;28;20241;-85
2024/01/30 12:24:22;;;;;;;10.33;8.93;;;;;;;;;;5021451;28;20197;-84
2024/01/30 12:26:52;;;;;;;11.53;9.50;;;;;;;;;;5038664;28;20201;-85
2024/01/30 12:29:22;;;;;;;10.80;8.63;;;;;;;;;;5055514;28;20213;-83
2024/01/30 12:31:57;;;;;;;10.70;8.80;;;;;;;;;;5022242;28;20245;-85
2024/01/30 12:34:27;;;;;;;9.37;8.37;;;;;;;;;;5060629;28;20197;-83
2024/01/30 12:36:55;;;;;;;9.13;7.90;;;;;;;;;;5037922;28;20203;-86
2024/01/30 12:39:21;;;;;;;9.20;8.10;;;;;;;;;;5004172;28;20205;-83
2024/01/30 12:41:54;;;;;;;10.43;8.33;;;;;;;;;;5056363;28;20442;-85
2024/01/30 12:44:28;;;;;;;9.60;8.20;;;;;;;;;;5056147;28;20655;-83
2024/01/30 12:46:59;;;;;;;10.27;9.13;;;;;;;;;;5038039;28;20208;-82
2024/01/30 12:49:25;;;;;;;13.17;11.83;;;;;;;;;;5027713;28;20202;-85
2024/01/30 12:51:58;;;;;;;10.50;8.10;;;;;;;;;;5055784;28;20678;-83
2024/01/30 12:54:29;;;;;;;9.07;8.10;;;;;;;;;;5038290;28;20201;-83
2024/01/30 12:56:58;;;;;;;8.47;7.57;;;;;;;;;;5038206;28;20199;-83
2024/01/30 12:59:25;;;;;;;9.40;7.47;;;;;;;;;;5054819;28;20292;-85
2024/01/30 13:01:52;;;;;;;8.47;7.53;;;;;;;;;;5037718;28;20617;-86
2024/01/30 13:04:20;;;;;;;8.33;7.00;;;;;;;;;;5055167;28;20186;-84
2024/01/30 13:06:50;;;;;;;9.00;7.30;;;;;;;;;;5037273;28;20292;-82
2024/01/30 13:09:17;;;;;;;8.03;6.93;;;;;;;;;;5021600;28;20200;-81
2024/01/30 13:11:49;;;;;;;8.27;7.37;;;;;;;;;;5037240;28;20225;-85
2024/01/30 13:14:23;;;;;;;9.07;7.80;;;;;;;;;;5062995;28;20273;-83
2024/01/30 13:16:50;;;;;;;12.30;7.47;;;;;;;;;;5021314;28;20189;-84
2024/01/30 13:19:21;;;;;;;8.53;7.47;;;;;;;;;;5054421;28;20189;-85
2024/01/30 13:21:48;;;;;;;13.10;11.27;;;;;;;;;;5054797;28;20197;-84
2024/01/30 13:24:21;;;;;;;8.37;7.47;;;;;;;;;;5052658;28;20280;-77
2024/01/30 13:26:50;;;;;;;8.77;7.13;;;;;;;;;;5052515;28;20193;-77
2024/01/30 13:29:18;;;;;;;8.47;7.40;;;;;;;;;;5043675;28;20189;-78
2024/01/30 13:31:46;;;;;;;9.80;7.50;;;;;;;;;;5052037;28;20223;-78
2024/01/30 13:34:16;;;;;;;9.33;7.90;;;;;;;;;;5051550;28;20197;-77
2024/01/30 13:36:43;;;;;;;9.80;7.87;;;;;;;;;;5051775;28;20201;-78
2024/01/30 13:39:19;;;;;;;8.10;7.30;;;;;;;;;;5051523;28;20197;-79
2024/01/30 13:41:49;;;;;;;9.67;7.53;;;;;;;;;;5052464;28;20285;-78
2024/01/30 13:44:17;;;;;;;9.20;7.10;;;;;;;;;;5051605;28;20201;-78
2024/01/30 13:46:47;;;;;;;9.87;7.73;;;;;;;;;;5057719;28;20213;-77
2024/01/30 13:49:16;;;;;;;9.90;7.60;;;;;;;;;;5049742;28;20193;-78
2024/01/30 13:51:46;;;;;;;8.23;7.43;;;;;;;;;;5051496;28;20240;-77
2024/01/30 13:54:15;;;;;;;8.73;7.53;;;;;;;;;;5051369;28;20240;-78
2024/01/30 13:56:45;;;;;;;8.57;7.67;;;;;;;;;;5051251;28;20227;-79
2024/01/30 13:59:13;;;;;;;8.43;7.57;;;;;;;;;;5051658;28;20196;-78
2024/01/30 14:01:43;;;;;;;8.67;7.30;;;;;;;;;;5049834;28;20213;-78
2024/01/30 14:04:16;;;;;;;10.17;8.30;;;;;;;;;;5054641;28;20271;-77
2024/01/30 14:06:42;;;;;;;9.60;7.63;;;;;;;;;;5051284;28;20203;-77
2024/01/30 14:09:23;;;;;;;8.60;7.63;;;;;;;;;;5042754;28;20192;-82
2024/01/30 14:11:50;;;;;;;9.93;7.80;;;;;;;;;;5045665;28;20206;-83
2024/01/30 14:14:16;;;;;;;11.83;8.53;;;;;;;;;;5042498;28;20218;-83
2024/01/30 14:16:43;;;;;;;10.63;8.53;;;;;;;;;;5053238;28;20186;-82
2024/01/30 14:19:10;;;;;;;12.43;11.13;;;;;;;;;;5035751;28;20197;-82
2024/01/30 14:21:37;;;;;;;10.43;8.20;;;;;;;;;;5035711;28;20249;-82
2024/01/30 14:24:03;;;;;;;11.60;9.70;;;;;;;;;;5060080;28;20185;-84
2024/01/30 14:26:37;;;;;;;8.87;7.57;;;;;;;;;;5062102;28;20234;-83
2024/01/30 14:29:07;;;;;;;8.03;7.23;;;;;;;;;;5040206;28;20259;-83
2024/01/30 14:31:33;;;;;;;9.17;7.90;;;;;;;;;;5035172;28;20204;-83
2024/01/30 14:34:00;;;;;;;9.47;8.03;;;;;;;;;;5019309;28;20194;-83